ESSV/VBY METAR and TAF weather

Enter ICAO airport designator
Station Type Date Time Source
ESSV METAR 2024/04/18 08:20 UTC NOAA

ESSV 180820Z 01009KT 9999 BKN015 02/M01 Q1013


Station Type Date Time Source
ESSV Decoded METAR 2024/04/18 08:20 UTC NOAA

Visby Flygplats, Sweden (ESSV) 57-40N 018-21E 47M
Apr 18, 2024 - 04:20 AM EDT / 2024.04.18 0820 UTC
Wind: from the N (010 degrees) at 10 MPH (9 KT):0
Visibility: greater than 7 mile(s):0
Sky conditions: mostly cloudy
Temperature: 35 F (2 C)
Windchill: 26 F (-3 C):1
Dew Point: 30 F (-1 C)
Relative Humidity: 80%
Pressure (altimeter): 29.91 in. Hg (1013 hPa)
ob: ESSV 180820Z 01009KT 9999 BKN015 02/M01 Q1013
cycle: 8

Station Type Date Time Source
ESSV TAF 2017/09/20 09:39 UTC NOAA